sensor_id;sensor_type;location;lat;lon;timestamp;pressure;altitude;pressure_sealevel;temperature;humidity
30724;BME280;17473;52.286;20.930;2022-10-15T00:01:28;100241.72;;;11.27;100.00
30724;BME280;17473;52.286;20.930;2022-10-15T00:03:55;100239.00;;;11.25;100.00
30724;BME280;17473;52.286;20.930;2022-10-15T00:06:22;100236.16;;;11.18;100.00
30724;BME280;17473;52.286;20.930;2022-10-15T00:08:49;100232.47;;;11.12;100.00
30724;BME280;17473;52.286;20.930;2022-10-15T00:11:19;100238.88;;;11.21;100.00
30724;BME280;17473;52.286;20.930;2022-10-15T00:13:47;100239.91;;;11.26;100.00
30724;BME280;17473;52.286;20.930;2022-10-15T00:16:19;100233.44;;;11.16;100.00
30724;BME280;17473;52.286;20.930;2022-10-15T00:18:47;100235.38;;;11.22;100.00
30724;BME280;17473;52.286;20.930;2022-10-15T00:21:18;100222.81;;;11.13;100.00
30724;BME280;17473;52.286;20.930;2022-10-15T00:23:47;100234.25;;;11.12;100.00
30724;BME280;17473;52.286;20.930;2022-10-15T00:26:21;100229.84;;;11.12;100.00
30724;BME280;17473;52.286;20.930;2022-10-15T00:28:49;100226.41;;;11.15;100.00
30724;BME280;17473;52.286;20.930;2022-10-15T00:31:18;100218.41;;;11.14;100.00
30724;BME280;17473;52.286;20.930;2022-10-15T00:33:51;100226.28;;;11.10;100.00
30724;BME280;17473;52.286;20.930;2022-10-15T00:36:22;100222.81;;;11.13;100.00
30724;BME280;17473;52.286;20.930;2022-10-15T00:38:50;100223.56;;;11.09;100.00
30724;BME280;17473;52.286;20.930;2022-10-15T00:41:31;100225.16;;;11.02;100.00
30724;BME280;17473;52.286;20.930;2022-10-15T00:46:53;100220.66;;;11.00;100.00
30724;BME280;17473;52.286;20.930;2022-10-15T00:49:36;100213.09;;;11.12;100.00
30724;BME280;17473;52.286;20.930;2022-10-15T00:52:18;100210.16;;;11.01;100.00
30724;BME280;17473;52.286;20.930;2022-10-15T00:54:54;100206.44;;;10.94;100.00
30724;BME280;17473;52.286;20.930;2022-10-15T00:57:24;100209.59;;;10.83;100.00
30724;BME280;17473;52.286;20.930;2022-10-15T00:59:55;100212.53;;;10.92;100.00
30724;BME280;17473;52.286;20.930;2022-10-15T01:02:24;100211.44;;;10.85;100.00
30724;BME280;17473;52.286;20.930;2022-10-15T01:04:52;100208.81;;;10.87;100.00
30724;BME280;17473;52.286;20.930;2022-10-15T01:07:19;100208.78;;;10.85;100.00
30724;BME280;17473;52.286;20.930;2022-10-15T01:09:46;100206.00;;;10.80;100.00
30724;BME280;17473;52.286;20.930;2022-10-15T01:18:43;100203.97;;;10.72;100.00
30724;BME280;17473;52.286;20.930;2022-10-15T01:21:51;100202.25;;;10.72;100.00
30724;BME280;17473;52.286;20.930;2022-10-15T01:24:40;100201.63;;;10.81;100.00
30724;BME280;17473;52.286;20.930;2022-10-15T01:27:26;100206.63;;;10.72;100.00
30724;BME280;17473;52.286;20.930;2022-10-15T01:33:26;100199.19;;;10.58;100.00
30724;BME280;17473;52.286;20.930;2022-10-15T01:39:15;100196.19;;;10.76;100.00
30724;BME280;17473;52.286;20.930;2022-10-15T01:41:51;100203.81;;;10.65;100.00
30724;BME280;17473;52.286;20.930;2022-10-15T01:44:39;100190.69;;;10.69;100.00
30724;BME280;17473;52.286;20.930;2022-10-15T01:47:42;100195.53;;;10.53;100.00
30724;BME280;17473;52.286;20.930;2022-10-15T01:50:10;100191.38;;;10.61;100.00
30724;BME280;17473;52.286;20.930;2022-10-15T01:52:40;100193.06;;;10.59;100.00
30724;BME280;17473;52.286;20.930;2022-10-15T01:55:12;100189.56;;;10.60;100.00
30724;BME280;17473;52.286;20.930;2022-10-15T01:57:42;100191.13;;;10.54;100.00
30724;BME280;17473;52.286;20.930;2022-10-15T02:00:11;100189.44;;;10.56;100.00
30724;BME280;17473;52.286;20.930;2022-10-15T02:02:38;100179.44;;;10.74;100.00
30724;BME280;17473;52.286;20.930;2022-10-15T02:05:16;100178.88;;;10.56;100.00
30724;BME280;17473;52.286;20.930;2022-10-15T02:08:11;100182.31;;;10.53;100.00
30724;BME280;17473;52.286;20.930;2022-10-15T02:11:19;100173.19;;;10.43;100.00
30724;BME280;17473;52.286;20.930;2022-10-15T02:14:07;100175.00;;;10.44;100.00
30724;BME280;17473;52.286;20.930;2022-10-15T02:17:05;100171.47;;;10.44;100.00
30724;BME280;17473;52.286;20.930;2022-10-15T02:19:48;100171.47;;;10.44;100.00
30724;BME280;17473;52.286;20.930;2022-10-15T02:25:05;100168.78;;;10.42;100.00
30724;BME280;17473;52.286;20.930;2022-10-15T02:27:33;100169.56;;;10.40;100.00
30724;BME280;17473;52.286;20.930;2022-10-15T02:30:05;100159.69;;;10.34;100.00
30724;BME280;17473;52.286;20.930;2022-10-15T02:32:36;100160.72;;;10.38;100.00
30724;BME280;17473;52.286;20.930;2022-10-15T02:35:07;100157.25;;;10.40;100.00
30724;BME280;17473;52.286;20.930;2022-10-15T02:37:37;100154.53;;;10.37;100.00
30724;BME280;17473;52.286;20.930;2022-10-15T02:40:09;100147.03;;;10.24;100.00
30724;BME280;17473;52.286;20.930;2022-10-15T02:42:36;100156.63;;;10.20;100.00
30724;BME280;17473;52.286;20.930;2022-10-15T02:45:04;100145.97;;;10.17;100.00
30724;BME280;17473;52.286;20.930;2022-10-15T02:47:31;100148.84;;;10.25;100.00
30724;BME280;17473;52.286;20.930;2022-10-15T02:49:58;100150.44;;;10.20;100.00
30724;BME280;17473;52.286;20.930;2022-10-15T02:52:25;100150.31;;;10.15;100.00
30724;BME280;17473;52.286;20.930;2022-10-15T02:54:52;100152.00;;;10.13;100.00
30724;BME280;17473;52.286;20.930;2022-10-15T02:57:19;100152.03;;;10.14;100.00
30724;BME280;17473;52.286;20.930;2022-10-15T02:59:46;100146.16;;;10.23;100.00
30724;BME280;17473;52.286;20.930;2022-10-15T03:02:13;100149.50;;;10.17;100.00
30724;BME280;17473;52.286;20.930;2022-10-15T03:04:45;100145.06;;;10.16;100.00
30724;BME280;17473;52.286;20.930;2022-10-15T03:07:12;100147.97;;;10.24;100.00
30724;BME280;17473;52.286;20.930;2022-10-15T03:09:39;100137.47;;;10.27;100.00
30724;BME280;17473;52.286;20.930;2022-10-15T03:12:06;100139.06;;;10.21;100.00
30724;BME280;17473;52.286;20.930;2022-10-15T03:14:34;100147.50;;;10.38;100.00
30724;BME280;17473;52.286;20.930;2022-10-15T03:17:01;100146.91;;;10.19;100.00
30724;BME280;17473;52.286;20.930;2022-10-15T03:19:28;100150.81;;;10.32;100.00
30724;BME280;17473;52.286;20.930;2022-10-15T03:21:55;100146.44;;;10.32;100.00
30724;BME280;17473;52.286;20.930;2022-10-15T03:24:22;100137.44;;;10.26;100.00
30724;BME280;17473;52.286;20.930;2022-10-15T03:26:48;100138.84;;;10.14;100.00
30724;BME280;17473;52.286;20.930;2022-10-15T03:29:15;100142.59;;;10.23;100.00
30724;BME280;17473;52.286;20.930;2022-10-15T03:31:42;100150.50;;;10.21;100.00
30724;BME280;17473;52.286;20.930;2022-10-15T03:34:09;100146.13;;;10.22;100.00
30724;BME280;17473;52.286;20.930;2022-10-15T03:36:36;100150.34;;;10.16;100.00
30724;BME280;17473;52.286;20.930;2022-10-15T03:39:03;100147.66;;;10.15;100.00
30724;BME280;17473;52.286;20.930;2022-10-15T03:41:31;100148.19;;;10.32;100.00
30724;BME280;17473;52.286;20.930;2022-10-15T03:44:04;100146.69;;;10.40;100.00
30724;BME280;17473;52.286;20.930;2022-10-15T03:46:32;100152.34;;;10.51;100.00
30724;BME280;17473;52.286;20.930;2022-10-15T03:49:00;100142.22;;;10.38;100.00
30724;BME280;17473;52.286;20.930;2022-10-15T03:51:27;100140.13;;;10.27;100.00
30724;BME280;17473;52.286;20.930;2022-10-15T03:53:57;100131.19;;;10.22;100.00
30724;BME280;17473;52.286;20.930;2022-10-15T03:56:24;100125.75;;;10.17;100.00
30724;BME280;17473;52.286;20.930;2022-10-15T03:58:51;100119.19;;;10.05;100.00
30724;BME280;17473;52.286;20.930;2022-10-15T04:01:18;100116.72;;;10.09;100.00
30724;BME280;17473;52.286;20.930;2022-10-15T04:03:45;100123.16;;;10.19;100.00
30724;BME280;17473;52.286;20.930;2022-10-15T04:06:12;100117.19;;;10.25;100.00
30724;BME280;17473;52.286;20.930;2022-10-15T04:08:39;100114.69;;;10.29;100.00
30724;BME280;17473;52.286;20.930;2022-10-15T04:11:06;100112.81;;;10.25;100.00
30724;BME280;17473;52.286;20.930;2022-10-15T04:13:33;100115.72;;;10.34;100.00
30724;BME280;17473;52.286;20.930;2022-10-15T04:16:03;100110.34;;;10.31;100.00
30724;BME280;17473;52.286;20.930;2022-10-15T04:18:31;100109.38;;;10.28;100.00
30724;BME280;17473;52.286;20.930;2022-10-15T04:20:59;100112.06;;;10.31;100.00
30724;BME280;17473;52.286;20.930;2022-10-15T04:23:27;100115.97;;;10.42;100.00
30724;BME280;17473;52.286;20.930;2022-10-15T04:25:58;100116.13;;;10.47;100.00
30724;BME280;17473;52.286;20.930;2022-10-15T04:28:26;100106.34;;;10.43;100.00
30724;BME280;17473;52.286;20.930;2022-10-15T04:30:58;100110.94;;;10.50;100.00
30724;BME280;17473;52.286;20.930;2022-10-15T04:33:26;100111.41;;;10.67;100.00
30724;BME280;17473;52.286;20.930;2022-10-15T04:36:07;100106.63;;;10.54;100.00
30724;BME280;17473;52.286;20.930;2022-10-15T04:38:34;100102.31;;;10.56;100.00
30724;BME280;17473;52.286;20.930;2022-10-15T04:41:08;100107.50;;;10.53;100.00
30724;BME280;17473;52.286;20.930;2022-10-15T04:43:36;100110.16;;;10.54;100.00
30724;BME280;17473;52.286;20.930;2022-10-15T04:46:06;100113.63;;;10.52;100.00
30724;BME280;17473;52.286;20.930;2022-10-15T04:48:36;100103.34;;;10.62;100.00
30724;BME280;17473;52.286;20.930;2022-10-15T04:51:15;100108.78;;;10.67;100.00
30724;BME280;17473;52.286;20.930;2022-10-15T04:53:42;100113.91;;;10.62;100.00
30724;BME280;17473;52.286;20.930;2022-10-15T04:56:15;100104.13;;;10.58;100.00
30724;BME280;17473;52.286;20.930;2022-10-15T04:58:45;100105.28;;;10.68;100.00
30724;BME280;17473;52.286;20.930;2022-10-15T05:01:19;100111.34;;;10.96;100.00
30724;BME280;17473;52.286;20.930;2022-10-15T05:03:47;100100.50;;;10.85;100.00
30724;BME280;17473;52.286;20.930;2022-10-15T05:06:20;100107.16;;;10.71;100.00
30724;BME280;17473;52.286;20.930;2022-10-15T05:08:48;100093.00;;;10.69;100.00
30724;BME280;17473;52.286;20.930;2022-10-15T05:11:24;100104.59;;;11.06;100.00
30724;BME280;17473;52.286;20.930;2022-10-15T05:13:54;100113.53;;;11.11;100.00
30724;BME280;17473;52.286;20.930;2022-10-15T05:16:27;100117.28;;;11.19;100.00
30724;BME280;17473;52.286;20.930;2022-10-15T05:18:58;100115.56;;;11.21;100.00
30724;BME280;17473;52.286;20.930;2022-10-15T05:21:26;100099.38;;;11.09;100.00
30724;BME280;17473;52.286;20.930;2022-10-15T05:23:53;100105.16;;;11.63;100.00
30724;BME280;17473;52.286;20.930;2022-10-15T05:26:23;100110.88;;;11.80;98.48
30724;BME280;17473;52.286;20.930;2022-10-15T05:28:51;100113.53;;;11.80;98.37
30724;BME280;17473;52.286;20.930;2022-10-15T05:31:21;100104.03;;;11.88;97.69
30724;BME280;17473;52.286;20.930;2022-10-15T05:33:50;100103.78;;;12.14;95.54
30724;BME280;17473;52.286;20.930;2022-10-15T05:38:56;100115.59;;;11.93;96.03
30724;BME280;17473;52.286;20.930;2022-10-15T05:41:24;100116.78;;;12.04;94.83
30724;BME280;17473;52.286;20.930;2022-10-15T05:43:54;100122.28;;;12.12;95.27
30724;BME280;17473;52.286;20.930;2022-10-15T05:46:22;100130.84;;;12.02;94.75
30724;BME280;17473;52.286;20.930;2022-10-15T05:48:54;100125.31;;;11.93;95.19
30724;BME280;17473;52.286;20.930;2022-10-15T05:51:23;100128.78;;;11.90;95.08
30724;BME280;17473;52.286;20.930;2022-10-15T05:53:56;100130.16;;;12.11;93.84
30724;BME280;17473;52.286;20.930;2022-10-15T05:56:24;100131.66;;;12.37;92.87
30724;BME280;17473;52.286;20.930;2022-10-15T05:58:51;100130.84;;;12.40;92.03
30724;BME280;17473;52.286;20.930;2022-10-15T06:01:18;100127.25;;;12.36;91.83
30724;BME280;17473;52.286;20.930;2022-10-15T06:03:45;100126.53;;;12.45;91.53
30724;BME280;17473;52.286;20.930;2022-10-15T06:06:24;100128.31;;;12.45;91.51
30724;BME280;17473;52.286;20.930;2022-10-15T06:08:53;100133.50;;;12.40;91.79
30724;BME280;17473;52.286;20.930;2022-10-15T06:11:21;100127.59;;;12.53;91.55
30724;BME280;17473;52.286;20.930;2022-10-15T06:13:48;100134.97;;;12.67;90.86
30724;BME280;17473;52.286;20.930;2022-10-15T06:16:16;100139.59;;;12.77;89.59
30724;BME280;17473;52.286;20.930;2022-10-15T06:18:51;100133.06;;;12.61;90.78
30724;BME280;17473;52.286;20.930;2022-10-15T06:21:19;100136.59;;;13.05;89.17
30724;BME280;17473;52.286;20.930;2022-10-15T06:23:46;100141.78;;;12.98;88.25
30724;BME280;17473;52.286;20.930;2022-10-15T06:26:13;100135.81;;;13.55;85.68
30724;BME280;17473;52.286;20.930;2022-10-15T06:28:40;100142.66;;;13.43;85.83
30724;BME280;17473;52.286;20.930;2022-10-15T06:31:07;100147.19;;;13.49;86.48
30724;BME280;17473;52.286;20.930;2022-10-15T06:33:35;100140.81;;;13.91;84.34
30724;BME280;17473;52.286;20.930;2022-10-15T06:36:08;100153.88;;;14.33;81.66
30724;BME280;17473;52.286;20.930;2022-10-15T06:38:36;100145.69;;;14.19;81.93
30724;BME280;17473;52.286;20.930;2022-10-15T06:41:05;100152.75;;;14.18;82.02
30724;BME280;17473;52.286;20.930;2022-10-15T06:43:32;100148.78;;;14.48;79.79
30724;BME280;17473;52.286;20.930;2022-10-15T06:46:04;100148.03;;;14.59;79.30
30724;BME280;17473;52.286;20.930;2022-10-15T06:48:32;100155.38;;;14.75;78.90
30724;BME280;17473;52.286;20.930;2022-10-15T06:51:00;100159.09;;;16.93;69.61
30724;BME280;17473;52.286;20.930;2022-10-15T06:53:28;100159.28;;;18.29;64.04
30724;BME280;17473;52.286;20.930;2022-10-15T06:56:01;100160.75;;;19.30;59.93
30724;BME280;17473;52.286;20.930;2022-10-15T06:58:29;100155.78;;;20.05;57.36
30724;BME280;17473;52.286;20.930;2022-10-15T07:01:04;100148.97;;;20.58;54.69
30724;BME280;17473;52.286;20.930;2022-10-15T07:03:32;100161.84;;;21.08;52.63
30724;BME280;17473;52.286;20.930;2022-10-15T07:06:04;100161.13;;;21.62;51.38
30724;BME280;17473;52.286;20.930;2022-10-15T07:08:32;100152.34;;;22.05;49.39
30724;BME280;17473;52.286;20.930;2022-10-15T07:11:04;100158.72;;;22.01;49.47
30724;BME280;17473;52.286;20.930;2022-10-15T07:13:32;100148.59;;;22.16;49.45
30724;BME280;17473;52.286;20.930;2022-10-15T07:16:06;100146.63;;;22.74;47.41
30724;BME280;17473;52.286;20.930;2022-10-15T07:18:34;100144.50;;;22.45;48.12
30724;BME280;17473;52.286;20.930;2022-10-15T07:21:03;100150.19;;;22.76;46.85
30724;BME280;17473;52.286;20.930;2022-10-15T07:23:31;100150.81;;;22.89;46.71
30724;BME280;17473;52.286;20.930;2022-10-15T07:25:59;100148.66;;;22.63;46.59
30724;BME280;17473;52.286;20.930;2022-10-15T07:28:26;100146.16;;;22.97;46.44
30724;BME280;17473;52.286;20.930;2022-10-15T07:30:54;100156.66;;;22.66;46.64
30724;BME280;17473;52.286;20.930;2022-10-15T07:33:25;100159.19;;;21.05;50.47
30724;BME280;17473;52.286;20.930;2022-10-15T07:35:52;100147.47;;;20.36;52.82
30724;BME280;17473;52.286;20.930;2022-10-15T07:38:19;100142.19;;;20.26;53.48
30724;BME280;17473;52.286;20.930;2022-10-15T07:40:46;100142.22;;;20.25;53.73
30724;BME280;17473;52.286;20.930;2022-10-15T07:43:13;100141.53;;;20.02;54.08
30724;BME280;17473;52.286;20.930;2022-10-15T07:45:46;100132.38;;;18.90;57.30
30724;BME280;17473;52.286;20.930;2022-10-15T07:48:14;100138.69;;;18.72;58.46
30724;BME280;17473;52.286;20.930;2022-10-15T07:50:41;100154.84;;;18.13;60.17
30724;BME280;17473;52.286;20.930;2022-10-15T07:53:08;100153.91;;;17.52;62.97
30724;BME280;17473;52.286;20.930;2022-10-15T07:55:35;100149.44;;;17.35;64.01
30724;BME280;17473;52.286;20.930;2022-10-15T07:58:02;100144.13;;;17.43;64.01
30724;BME280;17473;52.286;20.930;2022-10-15T08:00:32;100148.44;;;17.04;65.59
30724;BME280;17473;52.286;20.930;2022-10-15T08:03:04;100142.19;;;16.97;66.28
30724;BME280;17473;52.286;20.930;2022-10-15T08:05:32;100145.00;;;17.55;64.67
30724;BME280;17473;52.286;20.930;2022-10-15T08:07:59;100139.69;;;18.17;62.50
30724;BME280;17473;52.286;20.930;2022-10-15T08:10:27;100136.84;;;18.99;59.70
30724;BME280;17473;52.286;20.930;2022-10-15T08:12:54;100135.91;;;19.03;59.21
30724;BME280;17473;52.286;20.930;2022-10-15T08:15:20;100134.78;;;19.43;58.46
30724;BME280;17473;52.286;20.930;2022-10-15T08:17:47;100128.47;;;19.54;57.20
30724;BME280;17473;52.286;20.930;2022-10-15T08:20:14;100134.63;;;19.67;56.96
30724;BME280;17473;52.286;20.930;2022-10-15T08:22:41;100134.69;;;19.60;57.06
30724;BME280;17473;52.286;20.930;2022-10-15T08:25:08;100140.34;;;20.30;55.38
30724;BME280;17473;52.286;20.930;2022-10-15T08:27:35;100149.50;;;20.06;55.11
30724;BME280;17473;52.286;20.930;2022-10-15T08:30:03;100143.88;;;20.33;54.23
30724;BME280;17473;52.286;20.930;2022-10-15T08:32:31;100142.94;;;20.42;54.30
30724;BME280;17473;52.286;20.930;2022-10-15T08:34:57;100135.78;;;21.19;52.74
30724;BME280;17473;52.286;20.930;2022-10-15T08:37:24;100138.66;;;21.02;52.94
30724;BME280;17473;52.286;20.930;2022-10-15T08:39:51;100140.59;;;20.92;52.85
30724;BME280;17473;52.286;20.930;2022-10-15T08:42:35;100132.75;;;20.75;53.34
30724;BME280;17473;52.286;20.930;2022-10-15T08:45:16;100132.22;;;21.17;52.60
30724;BME280;17473;52.286;20.930;2022-10-15T08:47:55;100123.38;;;21.09;52.38
30724;BME280;17473;52.286;20.930;2022-10-15T08:51:06;100116.97;;;21.18;52.04
30724;BME280;17473;52.286;20.930;2022-10-15T08:53:51;100124.25;;;21.11;52.15
30724;BME280;17473;52.286;20.930;2022-10-15T08:56:43;100112.03;;;21.49;51.27
30724;BME280;17473;52.286;20.930;2022-10-15T08:59:35;100118.91;;;21.72;50.59
30724;BME280;17473;52.286;20.930;2022-10-15T09:02:22;100124.34;;;21.03;52.94
30724;BME280;17473;52.286;20.930;2022-10-15T09:05:00;100115.78;;;20.69;54.32
30724;BME280;17473;52.286;20.930;2022-10-15T09:10:58;100122.44;;;21.11;52.20
30724;BME280;17473;52.286;20.930;2022-10-15T09:13:37;100111.75;;;21.10;52.69
30724;BME280;17473;52.286;20.930;2022-10-15T09:16:20;100128.31;;;21.38;51.94
30724;BME280;17473;52.286;20.930;2022-10-15T09:18:51;100118.75;;;21.80;50.86
30724;BME280;17473;52.286;20.930;2022-10-15T09:21:24;100125.69;;;20.62;53.19
30724;BME280;17473;52.286;20.930;2022-10-15T09:24:14;100119.38;;;20.68;53.42
30724;BME280;17473;52.286;20.930;2022-10-15T09:35:50;100132.66;;;19.96;55.47
30724;BME280;17473;52.286;20.930;2022-10-15T09:38:42;100123.03;;;19.64;56.21
30724;BME280;17473;52.286;20.930;2022-10-15T09:43:48;100126.00;;;19.27;58.08
30724;BME280;17473;52.286;20.930;2022-10-15T09:46:16;100127.72;;;19.31;57.87
30724;BME280;17473;52.286;20.930;2022-10-15T09:48:50;100126.22;;;18.71;59.91
30724;BME280;17473;52.286;20.930;2022-10-15T09:57:35;100128.03;;;18.55;61.21
30724;BME280;17473;52.286;20.930;2022-10-15T10:00:10;100130.75;;;18.38;62.03
30724;BME280;17473;52.286;20.930;2022-10-15T10:02:39;100124.50;;;18.39;62.20
30724;BME280;17473;52.286;20.930;2022-10-15T10:05:31;100120.97;;;18.35;62.46
30724;BME280;17473;52.286;20.930;2022-10-15T10:08:23;100116.53;;;18.36;62.79
30724;BME280;17473;52.286;20.930;2022-10-15T10:10:59;100109.22;;;18.90;61.42
30724;BME280;17473;52.286;20.930;2022-10-15T10:13:44;100116.41;;;18.73;61.47
30724;BME280;17473;52.286;20.930;2022-10-15T10:16:14;100104.81;;;18.68;61.55
30724;BME280;17473;52.286;20.930;2022-10-15T10:18:41;100107.59;;;18.43;62.54
30724;BME280;17473;52.286;20.930;2022-10-15T10:21:29;100098.44;;;19.09;60.86
30724;BME280;17473;52.286;20.930;2022-10-15T10:24:34;100104.63;;;19.17;60.17
30724;BME280;17473;52.286;20.930;2022-10-15T10:27:01;100099.03;;;19.51;59.57
30724;BME280;17473;52.286;20.930;2022-10-15T10:29:38;100104.16;;;19.85;57.92
30724;BME280;17473;52.286;20.930;2022-10-15T10:32:20;100095.19;;;19.90;57.43
30724;BME280;17473;52.286;20.930;2022-10-15T10:34:48;100081.69;;;20.04;56.88
30724;BME280;17473;52.286;20.930;2022-10-15T10:37:19;100095.50;;;20.46;55.95
30724;BME280;17473;52.286;20.930;2022-10-15T10:39:53;100091.09;;;20.40;55.76
30724;BME280;17473;52.286;20.930;2022-10-15T10:42:31;100116.69;;;20.74;54.58
30724;BME280;17473;52.286;20.930;2022-10-15T10:45:21;100095.19;;;20.72;54.76
30724;BME280;17473;52.286;20.930;2022-10-15T10:47:48;100089.19;;;20.52;54.97
30724;BME280;17473;52.286;20.930;2022-10-15T10:50:32;100097.84;;;20.77;54.51
30724;BME280;17473;52.286;20.930;2022-10-15T10:53:22;100102.22;;;20.86;53.93
30724;BME280;17473;52.286;20.930;2022-10-15T10:55:51;100096.94;;;20.78;53.39
30724;BME280;17473;52.286;20.930;2022-10-15T10:58:22;100094.13;;;20.87;53.75
30724;BME280;17473;52.286;20.930;2022-10-15T11:00:53;100083.19;;;21.04;53.41
30724;BME280;17473;52.286;20.930;2022-10-15T11:03:36;100098.78;;;20.70;54.04
30724;BME280;17473;52.286;20.930;2022-10-15T11:06:19;100084.44;;;20.77;54.25
30724;BME280;17473;52.286;20.930;2022-10-15T11:09:03;100087.75;;;20.98;53.25
30724;BME280;17473;52.286;20.930;2022-10-15T11:20:22;100085.94;;;20.98;52.99
30724;BME280;17473;52.286;20.930;2022-10-15T11:32:31;100099.28;;;21.65;51.50
30724;BME280;17473;52.286;20.930;2022-10-15T11:35:45;100099.56;;;20.84;52.66
30724;BME280;17473;52.286;20.930;2022-10-15T11:38:42;100085.81;;;20.34;53.97
30724;BME280;17473;52.286;20.930;2022-10-15T11:56:33;100086.41;;;19.72;55.43
30724;BME280;17473;52.286;20.930;2022-10-15T12:02:18;100076.63;;;19.66;56.05
30724;BME280;17473;52.286;20.930;2022-10-15T12:04:55;100080.28;;;19.56;56.65
30724;BME280;17473;52.286;20.930;2022-10-15T12:07:41;100070.63;;;19.35;57.22
30724;BME280;17473;52.286;20.930;2022-10-15T12:13:12;100079.50;;;19.37;57.42
30724;BME280;17473;52.286;20.930;2022-10-15T12:16:14;100077.59;;;19.53;57.02
30724;BME280;17473;52.286;20.930;2022-10-15T12:19:00;100071.50;;;19.34;56.97
30724;BME280;17473;52.286;20.930;2022-10-15T12:30:11;100079.53;;;19.35;57.47
30724;BME280;17473;52.286;20.930;2022-10-15T12:32:42;100073.41;;;19.15;57.97
30724;BME280;17473;52.286;20.930;2022-10-15T12:35:22;100075.16;;;19.20;57.45
30724;BME280;17473;52.286;20.930;2022-10-15T12:37:50;100068.00;;;19.22;57.45
30724;BME280;17473;52.286;20.930;2022-10-15T12:42:59;100074.38;;;19.06;58.17
30724;BME280;17473;52.286;20.930;2022-10-15T12:45:57;100074.41;;;19.01;57.95
30724;BME280;17473;52.286;20.930;2022-10-15T12:53:49;100059.28;;;18.89;58.59
30724;BME280;17473;52.286;20.930;2022-10-15T12:58:51;100064.69;;;18.72;58.71
30724;BME280;17473;52.286;20.930;2022-10-15T13:11:48;100060.25;;;18.67;58.87
30724;BME280;17473;52.286;20.930;2022-10-15T13:14:38;100069.22;;;18.52;59.41
30724;BME280;17473;52.286;20.930;2022-10-15T13:17:19;100063.72;;;18.92;58.23
30724;BME280;17473;52.286;20.930;2022-10-15T13:20:05;100059.34;;;18.75;58.91
30724;BME280;17473;52.286;20.930;2022-10-15T13:22:35;100059.41;;;18.63;59.29
30724;BME280;17473;52.286;20.930;2022-10-15T13:25:02;100058.47;;;18.73;58.84
30724;BME280;17473;52.286;20.930;2022-10-15T13:27:33;100060.38;;;18.45;60.07
30724;BME280;17473;52.286;20.930;2022-10-15T13:30:14;100066.50;;;18.69;59.52
30724;BME280;17473;52.286;20.930;2022-10-15T13:32:50;100059.38;;;18.68;59.46
30724;BME280;17473;52.286;20.930;2022-10-15T13:35:24;100059.41;;;18.61;59.78
30724;BME280;17473;52.286;20.930;2022-10-15T13:37:56;100062.97;;;18.64;59.85
30724;BME280;17473;52.286;20.930;2022-10-15T13:40:29;100073.69;;;18.59;60.33
30724;BME280;17473;52.286;20.930;2022-10-15T13:43:12;100058.56;;;18.45;60.73
30724;BME280;17473;52.286;20.930;2022-10-15T13:45:55;100062.09;;;18.60;60.42
30724;BME280;17473;52.286;20.930;2022-10-15T13:48:26;100058.53;;;18.58;60.14
30724;BME280;17473;52.286;20.930;2022-10-15T13:50:57;100065.69;;;18.54;61.02
30724;BME280;17473;52.286;20.930;2022-10-15T13:53:35;100066.50;;;18.69;60.21
30724;BME280;17473;52.286;20.930;2022-10-15T13:56:23;100066.53;;;18.63;60.41
30724;BME280;17473;52.286;20.930;2022-10-15T13:58:51;100063.00;;;18.59;60.23
30724;BME280;17473;52.286;20.930;2022-10-15T14:01:22;100071.00;;;18.64;60.18
30724;BME280;17473;52.286;20.930;2022-10-15T14:03:53;100061.25;;;18.44;60.89
30724;BME280;17473;52.286;20.930;2022-10-15T14:06:29;100057.59;;;18.67;59.74
30724;BME280;17473;52.286;20.930;2022-10-15T14:11:45;100071.91;;;18.53;60.47
30724;BME280;17473;52.286;20.930;2022-10-15T14:14:39;100066.66;;;18.33;61.13
30724;BME280;17473;52.286;20.930;2022-10-15T14:17:24;100069.28;;;18.39;60.30
30724;BME280;17473;52.286;20.930;2022-10-15T14:19:58;100075.56;;;18.24;61.75
30724;BME280;17473;52.286;20.930;2022-10-15T14:22:48;100073.72;;;18.39;61.53
30724;BME280;17473;52.286;20.930;2022-10-15T14:25:22;100073.69;;;18.54;60.96
30724;BME280;17473;52.286;20.930;2022-10-15T14:27:51;100078.28;;;18.18;62.02
30724;BME280;17473;52.286;20.930;2022-10-15T14:30:30;100074.66;;;18.27;62.36
30724;BME280;17473;52.286;20.930;2022-10-15T14:32:58;100076.44;;;18.20;62.81
30724;BME280;17473;52.286;20.930;2022-10-15T14:35:33;100073.81;;;18.09;63.10
30724;BME280;17473;52.286;20.930;2022-10-15T14:40:35;100075.56;;;18.32;63.28
30724;BME280;17473;52.286;20.930;2022-10-15T14:43:18;100074.69;;;18.18;62.88
30724;BME280;17473;52.286;20.930;2022-10-15T14:48:41;100070.25;;;18.03;63.76
30724;BME280;17473;52.286;20.930;2022-10-15T14:51:25;100075.63;;;18.09;63.38
30724;BME280;17473;52.286;20.930;2022-10-15T14:53:52;100071.19;;;18.02;63.51
30724;BME280;17473;52.286;20.930;2022-10-15T14:56:29;100072.03;;;17.90;63.62
30724;BME280;17473;52.286;20.930;2022-10-15T14:58:58;100074.72;;;18.10;63.10
30724;BME280;17473;52.286;20.930;2022-10-15T15:01:26;100079.19;;;18.02;64.11
30724;BME280;17473;52.286;20.930;2022-10-15T15:03:56;100075.59;;;17.92;64.20
30724;BME280;17473;52.286;20.930;2022-10-15T15:06:23;100086.28;;;17.84;63.63